sensor_id;sensor_type;location;lat;lon;timestamp;P1;durP1;ratioP1;P2;durP2;ratioP2
79149;SDS011;68563;45.644;13.782;2023-05-07T00:02:14;6.45;;;4.78;;
79149;SDS011;68563;45.644;13.782;2023-05-07T00:04:39;6.93;;;4.68;;
79149;SDS011;68563;45.644;13.782;2023-05-07T00:07:04;7.93;;;5.22;;
79149;SDS011;68563;45.644;13.782;2023-05-07T00:09:30;8.68;;;4.90;;
79149;SDS011;68563;45.644;13.782;2023-05-07T00:11:56;8.52;;;4.68;;
79149;SDS011;68563;45.644;13.782;2023-05-07T00:14:21;9.75;;;4.22;;
79149;SDS011;68563;45.644;13.782;2023-05-07T00:16:46;7.03;;;4.95;;
79149;SDS011;68563;45.644;13.782;2023-05-07T00:19:12;5.78;;;4.70;;
79149;SDS011;68563;45.644;13.782;2023-05-07T00:21:37;6.07;;;4.90;;
79149;SDS011;68563;45.644;13.782;2023-05-07T00:24:03;6.57;;;5.15;;
79149;SDS011;68563;45.644;13.782;2023-05-07T00:26:28;7.82;;;5.22;;
79149;SDS011;68563;45.644;13.782;2023-05-07T00:28:54;5.95;;;5.03;;
79149;SDS011;68563;45.644;13.782;2023-05-07T00:31:19;8.07;;;4.70;;
79149;SDS011;68563;45.644;13.782;2023-05-07T00:33:44;6.28;;;4.47;;
79149;SDS011;68563;45.644;13.782;2023-05-07T00:36:10;6.35;;;4.22;;
79149;SDS011;68563;45.644;13.782;2023-05-07T00:38:35;5.72;;;4.28;;
79149;SDS011;68563;45.644;13.782;2023-05-07T00:41:01;5.60;;;4.35;;
79149;SDS011;68563;45.644;13.782;2023-05-07T00:43:27;5.75;;;4.28;;
79149;SDS011;68563;45.644;13.782;2023-05-07T00:45:53;6.00;;;4.20;;
79149;SDS011;68563;45.644;13.782;2023-05-07T00:48:18;6.07;;;4.55;;
79149;SDS011;68563;45.644;13.782;2023-05-07T00:50:44;5.07;;;4.18;;
79149;SDS011;68563;45.644;13.782;2023-05-07T00:53:10;5.32;;;4.10;;
79149;SDS011;68563;45.644;13.782;2023-05-07T00:55:36;7.82;;;4.53;;
79149;SDS011;68563;45.644;13.782;2023-05-07T00:58:02;5.32;;;4.28;;
79149;SDS011;68563;45.644;13.782;2023-05-07T01:00:28;12.00;;;4.22;;
79149;SDS011;68563;45.644;13.782;2023-05-07T01:02:53;5.93;;;4.18;;
79149;SDS011;68563;45.644;13.782;2023-05-07T01:05:19;6.00;;;3.88;;
79149;SDS011;68563;45.644;13.782;2023-05-07T01:07:47;7.45;;;4.20;;
79149;SDS011;68563;45.644;13.782;2023-05-07T01:10:13;4.80;;;3.88;;
79149;SDS011;68563;45.644;13.782;2023-05-07T01:12:39;7.10;;;3.83;;
79149;SDS011;68563;45.644;13.782;2023-05-07T01:15:06;4.68;;;4.00;;
79149;SDS011;68563;45.644;13.782;2023-05-07T01:17:33;4.35;;;3.88;;
79149;SDS011;68563;45.644;13.782;2023-05-07T01:20:00;5.50;;;3.70;;
79149;SDS011;68563;45.644;13.782;2023-05-07T01:22:32;5.80;;;3.60;;
79149;SDS011;68563;45.644;13.782;2023-05-07T01:24:59;4.13;;;3.25;;
79149;SDS011;68563;45.644;13.782;2023-05-07T01:27:26;4.28;;;3.72;;
79149;SDS011;68563;45.644;13.782;2023-05-07T01:29:52;5.45;;;3.60;;
79149;SDS011;68563;45.644;13.782;2023-05-07T01:32:19;4.50;;;3.40;;
79149;SDS011;68563;45.644;13.782;2023-05-07T01:34:52;6.80;;;3.55;;
79149;SDS011;68563;45.644;13.782;2023-05-07T01:37:19;3.50;;;3.20;;
79149;SDS011;68563;45.644;13.782;2023-05-07T01:39:45;5.07;;;3.20;;
79149;SDS011;68563;45.644;13.782;2023-05-07T01:42:12;7.80;;;3.50;;
79149;SDS011;68563;45.644;13.782;2023-05-07T01:44:38;3.85;;;3.13;;
79149;SDS011;68563;45.644;13.782;2023-05-07T01:47:04;6.28;;;3.80;;
79149;SDS011;68563;45.644;13.782;2023-05-07T01:49:30;7.13;;;3.70;;
79149;SDS011;68563;45.644;13.782;2023-05-07T01:51:55;4.10;;;3.40;;
79149;SDS011;68563;45.644;13.782;2023-05-07T01:54:25;5.43;;;3.35;;
79149;SDS011;68563;45.644;13.782;2023-05-07T01:56:53;6.45;;;3.67;;
79149;SDS011;68563;45.644;13.782;2023-05-07T01:59:20;4.85;;;3.40;;
79149;SDS011;68563;45.644;13.782;2023-05-07T02:01:45;4.50;;;3.60;;
79149;SDS011;68563;45.644;13.782;2023-05-07T02:04:10;4.55;;;3.30;;
79149;SDS011;68563;45.644;13.782;2023-05-07T02:06:36;4.68;;;3.25;;
79149;SDS011;68563;45.644;13.782;2023-05-07T02:09:01;4.57;;;3.38;;
79149;SDS011;68563;45.644;13.782;2023-05-07T02:11:27;4.78;;;3.38;;
79149;SDS011;68563;45.644;13.782;2023-05-07T02:13:52;4.30;;;3.17;;
79149;SDS011;68563;45.644;13.782;2023-05-07T02:16:18;5.97;;;3.13;;
79149;SDS011;68563;45.644;13.782;2023-05-07T02:18:44;5.43;;;3.13;;
79149;SDS011;68563;45.644;13.782;2023-05-07T02:21:10;4.13;;;3.10;;
79149;SDS011;68563;45.644;13.782;2023-05-07T02:23:35;5.70;;;3.55;;
79149;SDS011;68563;45.644;13.782;2023-05-07T02:26:01;4.05;;;3.15;;
79149;SDS011;68563;45.644;13.782;2023-05-07T02:28:26;5.07;;;3.10;;
79149;SDS011;68563;45.644;13.782;2023-05-07T02:30:52;4.05;;;3.10;;
79149;SDS011;68563;45.644;13.782;2023-05-07T02:33:17;4.53;;;3.45;;
79149;SDS011;68563;45.644;13.782;2023-05-07T02:35:43;3.75;;;2.90;;
79149;SDS011;68563;45.644;13.782;2023-05-07T02:38:08;3.47;;;3.00;;
79149;SDS011;68563;45.644;13.782;2023-05-07T02:40:35;4.47;;;3.45;;
79149;SDS011;68563;45.644;13.782;2023-05-07T02:43:04;4.25;;;3.40;;
79149;SDS011;68563;45.644;13.782;2023-05-07T02:45:30;4.40;;;3.30;;
79149;SDS011;68563;45.644;13.782;2023-05-07T02:47:56;5.32;;;3.33;;
79149;SDS011;68563;45.644;13.782;2023-05-07T02:50:21;6.35;;;4.13;;
79149;SDS011;68563;45.644;13.782;2023-05-07T02:52:47;3.70;;;3.20;;
79149;SDS011;68563;45.644;13.782;2023-05-07T02:55:12;7.55;;;3.90;;
79149;SDS011;68563;45.644;13.782;2023-05-07T02:57:38;5.72;;;4.03;;
79149;SDS011;68563;45.644;13.782;2023-05-07T03:02:42;5.50;;;3.80;;
79149;SDS011;68563;45.644;13.782;2023-05-07T03:05:08;5.55;;;4.07;;
79149;SDS011;68563;45.644;13.782;2023-05-07T03:07:34;4.93;;;3.75;;
79149;SDS011;68563;45.644;13.782;2023-05-07T03:10:01;5.10;;;4.13;;
79149;SDS011;68563;45.644;13.782;2023-05-07T03:12:26;4.70;;;4.05;;
79149;SDS011;68563;45.644;13.782;2023-05-07T03:14:51;5.65;;;4.13;;
79149;SDS011;68563;45.644;13.782;2023-05-07T03:17:17;7.07;;;4.45;;
79149;SDS011;68563;45.644;13.782;2023-05-07T03:19:42;4.85;;;4.10;;
79149;SDS011;68563;45.644;13.782;2023-05-07T03:22:08;7.82;;;3.80;;
79149;SDS011;68563;45.644;13.782;2023-05-07T03:24:33;5.65;;;4.20;;
79149;SDS011;68563;45.644;13.782;2023-05-07T03:26:59;4.70;;;3.85;;
79149;SDS011;68563;45.644;13.782;2023-05-07T03:29:26;4.80;;;4.00;;
79149;SDS011;68563;45.644;13.782;2023-05-07T03:31:51;4.68;;;3.83;;
79149;SDS011;68563;45.644;13.782;2023-05-07T03:34:16;7.95;;;3.97;;
79149;SDS011;68563;45.644;13.782;2023-05-07T03:36:46;5.82;;;3.92;;
79149;SDS011;68563;45.644;13.782;2023-05-07T03:39:13;6.18;;;3.70;;
79149;SDS011;68563;45.644;13.782;2023-05-07T03:41:38;6.22;;;3.63;;
79149;SDS011;68563;45.644;13.782;2023-05-07T03:44:03;4.13;;;3.58;;
79149;SDS011;68563;45.644;13.782;2023-05-07T03:46:29;3.92;;;3.25;;
79149;SDS011;68563;45.644;13.782;2023-05-07T03:48:54;4.28;;;3.70;;
79149;SDS011;68563;45.644;13.782;2023-05-07T03:51:20;3.53;;;3.22;;
79149;SDS011;68563;45.644;13.782;2023-05-07T03:53:45;3.75;;;3.30;;
79149;SDS011;68563;45.644;13.782;2023-05-07T03:56:10;4.95;;;3.70;;
79149;SDS011;68563;45.644;13.782;2023-05-07T03:58:36;5.55;;;3.50;;
79149;SDS011;68563;45.644;13.782;2023-05-07T04:01:01;3.90;;;3.50;;
79149;SDS011;68563;45.644;13.782;2023-05-07T04:03:28;4.05;;;3.13;;
79149;SDS011;68563;45.644;13.782;2023-05-07T04:05:54;4.68;;;3.60;;
79149;SDS011;68563;45.644;13.782;2023-05-07T04:08:20;5.25;;;3.80;;
79149;SDS011;68563;45.644;13.782;2023-05-07T04:10:45;5.60;;;3.60;;
79149;SDS011;68563;45.644;13.782;2023-05-07T04:13:10;6.88;;;3.55;;
79149;SDS011;68563;45.644;13.782;2023-05-07T04:15:36;5.07;;;3.80;;
79149;SDS011;68563;45.644;13.782;2023-05-07T04:18:01;5.03;;;4.00;;
79149;SDS011;68563;45.644;13.782;2023-05-07T04:20:27;5.40;;;4.10;;
79149;SDS011;68563;45.644;13.782;2023-05-07T04:22:52;5.35;;;3.75;;
79149;SDS011;68563;45.644;13.782;2023-05-07T04:25:18;5.50;;;4.13;;
79149;SDS011;68563;45.644;13.782;2023-05-07T04:27:43;4.72;;;4.22;;
79149;SDS011;68563;45.644;13.782;2023-05-07T04:30:09;5.10;;;3.72;;
79149;SDS011;68563;45.644;13.782;2023-05-07T04:32:34;4.75;;;3.40;;
79149;SDS011;68563;45.644;13.782;2023-05-07T04:35:01;5.35;;;3.42;;
79149;SDS011;68563;45.644;13.782;2023-05-07T04:37:26;4.65;;;4.15;;
79149;SDS011;68563;45.644;13.782;2023-05-07T04:39:52;7.85;;;4.18;;
79149;SDS011;68563;45.644;13.782;2023-05-07T04:42:17;7.28;;;3.72;;
79149;SDS011;68563;45.644;13.782;2023-05-07T04:44:44;7.53;;;3.70;;
79149;SDS011;68563;45.644;13.782;2023-05-07T04:47:10;6.28;;;4.40;;
79149;SDS011;68563;45.644;13.782;2023-05-07T04:49:36;6.55;;;4.07;;
79149;SDS011;68563;45.644;13.782;2023-05-07T04:52:02;6.95;;;4.72;;
79149;SDS011;68563;45.644;13.782;2023-05-07T04:54:28;5.90;;;4.70;;
79149;SDS011;68563;45.644;13.782;2023-05-07T04:56:53;5.90;;;4.40;;
79149;SDS011;68563;45.644;13.782;2023-05-07T04:59:19;7.38;;;4.07;;
79149;SDS011;68563;45.644;13.782;2023-05-07T05:01:44;5.20;;;3.92;;
79149;SDS011;68563;45.644;13.782;2023-05-07T05:04:10;5.22;;;4.30;;
79149;SDS011;68563;45.644;13.782;2023-05-07T05:06:35;8.70;;;4.50;;
79149;SDS011;68563;45.644;13.782;2023-05-07T05:09:00;5.72;;;4.07;;
79149;SDS011;68563;45.644;13.782;2023-05-07T05:11:26;8.73;;;4.18;;
79149;SDS011;68563;45.644;13.782;2023-05-07T05:13:51;5.93;;;4.32;;
79149;SDS011;68563;45.644;13.782;2023-05-07T05:16:17;4.97;;;3.80;;
79149;SDS011;68563;45.644;13.782;2023-05-07T05:18:42;5.10;;;3.95;;
79149;SDS011;68563;45.644;13.782;2023-05-07T05:21:07;5.22;;;3.90;;
79149;SDS011;68563;45.644;13.782;2023-05-07T05:23:33;5.32;;;3.92;;
79149;SDS011;68563;45.644;13.782;2023-05-07T05:25:58;7.28;;;3.70;;
79149;SDS011;68563;45.644;13.782;2023-05-07T05:28:24;6.03;;;3.63;;
79149;SDS011;68563;45.644;13.782;2023-05-07T05:30:49;6.88;;;3.55;;
79149;SDS011;68563;45.644;13.782;2023-05-07T05:33:15;4.65;;;3.65;;
79149;SDS011;68563;45.644;13.782;2023-05-07T05:35:40;4.35;;;3.63;;
79149;SDS011;68563;45.644;13.782;2023-05-07T05:38:06;5.90;;;4.13;;
79149;SDS011;68563;45.644;13.782;2023-05-07T05:40:31;6.80;;;4.13;;
79149;SDS011;68563;45.644;13.782;2023-05-07T05:42:57;5.55;;;4.18;;
79149;SDS011;68563;45.644;13.782;2023-05-07T05:45:22;6.32;;;4.28;;
79149;SDS011;68563;45.644;13.782;2023-05-07T05:47:48;7.47;;;4.55;;
79149;SDS011;68563;45.644;13.782;2023-05-07T05:50:13;5.28;;;4.40;;
79149;SDS011;68563;45.644;13.782;2023-05-07T05:52:38;5.78;;;4.00;;
79149;SDS011;68563;45.644;13.782;2023-05-07T05:55:04;4.38;;;3.97;;
79149;SDS011;68563;45.644;13.782;2023-05-07T05:57:30;6.03;;;4.20;;
79149;SDS011;68563;45.644;13.782;2023-05-07T05:59:55;5.18;;;3.90;;
79149;SDS011;68563;45.644;13.782;2023-05-07T06:02:21;4.65;;;4.25;;
79149;SDS011;68563;45.644;13.782;2023-05-07T06:04:46;9.05;;;4.45;;
79149;SDS011;68563;45.644;13.782;2023-05-07T06:07:12;8.63;;;4.45;;
79149;SDS011;68563;45.644;13.782;2023-05-07T06:09:37;7.10;;;4.32;;
79149;SDS011;68563;45.644;13.782;2023-05-07T06:12:02;8.20;;;5.35;;
79149;SDS011;68563;45.644;13.782;2023-05-07T06:14:28;6.25;;;4.55;;
79149;SDS011;68563;45.644;13.782;2023-05-07T06:16:53;6.05;;;4.85;;
79149;SDS011;68563;45.644;13.782;2023-05-07T06:19:18;6.80;;;4.50;;
79149;SDS011;68563;45.644;13.782;2023-05-07T06:21:49;5.28;;;4.50;;
79149;SDS011;68563;45.644;13.782;2023-05-07T06:24:14;6.28;;;4.40;;
79149;SDS011;68563;45.644;13.782;2023-05-07T06:26:40;6.15;;;4.32;;
79149;SDS011;68563;45.644;13.782;2023-05-07T06:29:05;5.13;;;4.38;;
79149;SDS011;68563;45.644;13.782;2023-05-07T06:31:31;5.25;;;4.28;;
79149;SDS011;68563;45.644;13.782;2023-05-07T06:33:59;6.82;;;4.45;;
79149;SDS011;68563;45.644;13.782;2023-05-07T06:36:25;8.00;;;4.72;;
79149;SDS011;68563;45.644;13.782;2023-05-07T06:38:51;6.57;;;4.50;;
79149;SDS011;68563;45.644;13.782;2023-05-07T06:41:16;5.30;;;4.20;;
79149;SDS011;68563;45.644;13.782;2023-05-07T06:43:42;6.25;;;4.30;;
79149;SDS011;68563;45.644;13.782;2023-05-07T06:46:07;5.18;;;4.40;;
79149;SDS011;68563;45.644;13.782;2023-05-07T06:48:32;5.13;;;4.00;;
79149;SDS011;68563;45.644;13.782;2023-05-07T06:50:58;5.10;;;4.18;;
79149;SDS011;68563;45.644;13.782;2023-05-07T06:53:23;6.15;;;4.03;;
79149;SDS011;68563;45.644;13.782;2023-05-07T06:55:49;5.18;;;4.13;;
79149;SDS011;68563;45.644;13.782;2023-05-07T06:58:15;6.85;;;4.07;;
79149;SDS011;68563;45.644;13.782;2023-05-07T07:00:40;6.75;;;4.45;;
79149;SDS011;68563;45.644;13.782;2023-05-07T07:03:06;6.68;;;4.50;;
79149;SDS011;68563;45.644;13.782;2023-05-07T07:05:31;5.22;;;4.40;;
79149;SDS011;68563;45.644;13.782;2023-05-07T07:07:57;6.80;;;4.30;;
79149;SDS011;68563;45.644;13.782;2023-05-07T07:10:22;5.80;;;4.07;;
79149;SDS011;68563;45.644;13.782;2023-05-07T07:12:48;6.43;;;4.03;;
79149;SDS011;68563;45.644;13.782;2023-05-07T07:15:15;6.32;;;4.18;;
79149;SDS011;68563;45.644;13.782;2023-05-07T07:17:40;8.18;;;4.90;;
79149;SDS011;68563;45.644;13.782;2023-05-07T07:20:06;5.40;;;4.45;;
79149;SDS011;68563;45.644;13.782;2023-05-07T07:22:32;5.57;;;4.25;;
79149;SDS011;68563;45.644;13.782;2023-05-07T07:24:58;4.57;;;3.92;;
79149;SDS011;68563;45.644;13.782;2023-05-07T07:27:23;6.22;;;4.35;;
79149;SDS011;68563;45.644;13.782;2023-05-07T07:29:49;6.18;;;4.03;;
79149;SDS011;68563;45.644;13.782;2023-05-07T07:32:14;8.02;;;4.22;;
79149;SDS011;68563;45.644;13.782;2023-05-07T07:34:40;6.07;;;4.28;;
79149;SDS011;68563;45.644;13.782;2023-05-07T07:37:05;6.63;;;4.10;;
79149;SDS011;68563;45.644;13.782;2023-05-07T07:39:34;6.35;;;4.10;;
79149;SDS011;68563;45.644;13.782;2023-05-07T07:42:00;5.63;;;3.95;;
79149;SDS011;68563;45.644;13.782;2023-05-07T07:44:25;5.15;;;3.95;;
79149;SDS011;68563;45.644;13.782;2023-05-07T07:46:52;4.80;;;4.10;;
79149;SDS011;68563;45.644;13.782;2023-05-07T07:49:17;5.38;;;3.95;;
79149;SDS011;68563;45.644;13.782;2023-05-07T07:51:43;7.78;;;4.68;;
79149;SDS011;68563;45.644;13.782;2023-05-07T07:54:08;5.47;;;3.92;;
79149;SDS011;68563;45.644;13.782;2023-05-07T07:56:34;5.43;;;4.07;;
79149;SDS011;68563;45.644;13.782;2023-05-07T07:59:00;4.60;;;3.88;;
79149;SDS011;68563;45.644;13.782;2023-05-07T08:01:25;7.22;;;4.15;;
79149;SDS011;68563;45.644;13.782;2023-05-07T08:03:51;5.55;;;4.15;;
79149;SDS011;68563;45.644;13.782;2023-05-07T08:06:17;5.53;;;4.18;;
79149;SDS011;68563;45.644;13.782;2023-05-07T08:08:42;19.35;;;4.85;;
79149;SDS011;68563;45.644;13.782;2023-05-07T08:11:08;6.85;;;4.45;;
79149;SDS011;68563;45.644;13.782;2023-05-07T08:13:33;7.30;;;4.50;;
79149;SDS011;68563;45.644;13.782;2023-05-07T08:15:59;6.05;;;4.50;;
79149;SDS011;68563;45.644;13.782;2023-05-07T08:18:25;7.03;;;4.70;;
79149;SDS011;68563;45.644;13.782;2023-05-07T08:20:53;6.15;;;4.80;;
79149;SDS011;68563;45.644;13.782;2023-05-07T08:23:18;6.70;;;4.55;;
79149;SDS011;68563;45.644;13.782;2023-05-07T08:25:44;4.78;;;4.00;;
79149;SDS011;68563;45.644;13.782;2023-05-07T08:28:09;5.47;;;4.45;;
79149;SDS011;68563;45.644;13.782;2023-05-07T08:30:35;6.03;;;4.20;;
79149;SDS011;68563;45.644;13.782;2023-05-07T08:33:00;6.38;;;4.55;;
79149;SDS011;68563;45.644;13.782;2023-05-07T08:35:26;5.53;;;4.93;;
79149;SDS011;68563;45.644;13.782;2023-05-07T08:37:52;6.03;;;4.70;;
79149;SDS011;68563;45.644;13.782;2023-05-07T08:40:17;9.20;;;5.18;;
79149;SDS011;68563;45.644;13.782;2023-05-07T08:42:43;8.07;;;4.75;;
79149;SDS011;68563;45.644;13.782;2023-05-07T08:45:09;8.30;;;5.05;;
79149;SDS011;68563;45.644;13.782;2023-05-07T08:47:40;6.95;;;4.65;;
79149;SDS011;68563;45.644;13.782;2023-05-07T08:50:18;7.15;;;5.60;;
79149;SDS011;68563;45.644;13.782;2023-05-07T08:52:45;8.13;;;5.18;;
79149;SDS011;68563;45.644;13.782;2023-05-07T08:55:10;7.95;;;5.47;;
79149;SDS011;68563;45.644;13.782;2023-05-07T08:57:37;6.93;;;4.90;;
79149;SDS011;68563;45.644;13.782;2023-05-07T09:00:03;6.25;;;5.60;;
79149;SDS011;68563;45.644;13.782;2023-05-07T09:02:32;7.30;;;5.68;;
79149;SDS011;68563;45.644;13.782;2023-05-07T09:05:00;7.97;;;5.55;;
79149;SDS011;68563;45.644;13.782;2023-05-07T09:07:25;8.02;;;4.95;;
79149;SDS011;68563;45.644;13.782;2023-05-07T09:09:51;6.70;;;5.28;;
79149;SDS011;68563;45.644;13.782;2023-05-07T09:12:17;8.23;;;5.65;;
79149;SDS011;68563;45.644;13.782;2023-05-07T09:14:43;9.07;;;6.35;;
79149;SDS011;68563;45.644;13.782;2023-05-07T09:17:09;8.02;;;5.63;;
79149;SDS011;68563;45.644;13.782;2023-05-07T09:19:35;8.20;;;6.13;;
79149;SDS011;68563;45.644;13.782;2023-05-07T09:22:01;9.40;;;6.38;;
79149;SDS011;68563;45.644;13.782;2023-05-07T09:24:28;10.88;;;6.47;;
79149;SDS011;68563;45.644;13.782;2023-05-07T09:26:58;8.90;;;6.57;;
79149;SDS011;68563;45.644;13.782;2023-05-07T09:29:26;11.35;;;6.40;;
79149;SDS011;68563;45.644;13.782;2023-05-07T09:31:53;6.47;;;5.72;;
79149;SDS011;68563;45.644;13.782;2023-05-07T09:34:19;8.80;;;6.38;;
79149;SDS011;68563;45.644;13.782;2023-05-07T09:36:45;8.68;;;7.05;;
79149;SDS011;68563;45.644;13.782;2023-05-07T09:39:10;9.32;;;6.50;;
79149;SDS011;68563;45.644;13.782;2023-05-07T09:41:43;7.18;;;5.75;;
79149;SDS011;68563;45.644;13.782;2023-05-07T09:44:10;7.82;;;6.07;;
79149;SDS011;68563;45.644;13.782;2023-05-07T09:46:36;7.85;;;5.78;;
79149;SDS011;68563;45.644;13.782;2023-05-07T09:49:03;8.57;;;6.28;;
79149;SDS011;68563;45.644;13.782;2023-05-07T09:54:06;8.90;;;6.15;;
79149;SDS011;68563;45.644;13.782;2023-05-07T09:56:32;7.65;;;6.28;;
79149;SDS011;68563;45.644;13.782;2023-05-07T09:59:01;8.70;;;6.40;;
79149;SDS011;68563;45.644;13.782;2023-05-07T10:01:29;8.80;;;6.05;;
79149;SDS011;68563;45.644;13.782;2023-05-07T10:03:56;8.38;;;6.68;;
79149;SDS011;68563;45.644;13.782;2023-05-07T10:06:24;8.77;;;6.20;;
79149;SDS011;68563;45.644;13.782;2023-05-07T10:08:53;9.05;;;6.47;;
79149;SDS011;68563;45.644;13.782;2023-05-07T10:11:19;8.50;;;6.10;;
79149;SDS011;68563;45.644;13.782;2023-05-07T10:13:46;7.10;;;5.80;;
79149;SDS011;68563;45.644;13.782;2023-05-07T10:16:13;8.18;;;6.40;;
79149;SDS011;68563;45.644;13.782;2023-05-07T10:18:40;8.27;;;6.60;;
79149;SDS011;68563;45.644;13.782;2023-05-07T10:21:19;8.65;;;7.07;;
79149;SDS011;68563;45.644;13.782;2023-05-07T10:23:50;7.53;;;6.40;;
79149;SDS011;68563;45.644;13.782;2023-05-07T10:26:19;8.25;;;6.53;;
79149;SDS011;68563;45.644;13.782;2023-05-07T10:28:49;8.10;;;6.15;;
79149;SDS011;68563;45.644;13.782;2023-05-07T10:34:02;9.75;;;6.50;;
79149;SDS011;68563;45.644;13.782;2023-05-07T10:36:35;8.98;;;6.70;;
79149;SDS011;68563;45.644;13.782;2023-05-07T10:39:01;6.97;;;6.20;;
79149;SDS011;68563;45.644;13.782;2023-05-07T10:41:26;9.00;;;7.35;;
79149;SDS011;68563;45.644;13.782;2023-05-07T10:43:51;9.30;;;7.10;;
79149;SDS011;68563;45.644;13.782;2023-05-07T10:46:17;9.50;;;6.72;;
79149;SDS011;68563;45.644;13.782;2023-05-07T10:49:29;8.73;;;6.93;;
79149;SDS011;68563;45.644;13.782;2023-05-07T10:51:32;7.05;;;5.93;;
79149;SDS011;68563;45.644;13.782;2023-05-07T10:56:36;8.43;;;6.50;;
79149;SDS011;68563;45.644;13.782;2023-05-07T11:04:20;7.85;;;6.40;;
79149;SDS011;68563;45.644;13.782;2023-05-07T11:15:06;7.70;;;6.15;;
79149;SDS011;68563;45.644;13.782;2023-05-07T11:17:32;8.00;;;6.00;;
79149;SDS011;68563;45.644;13.782;2023-05-07T11:20:00;8.23;;;6.45;;
79149;SDS011;68563;45.644;13.782;2023-05-07T11:25:07;8.25;;;6.43;;
79149;SDS011;68563;45.644;13.782;2023-05-07T11:27:33;7.95;;;6.13;;
79149;SDS011;68563;45.644;13.782;2023-05-07T11:29:58;10.30;;;5.60;;
79149;SDS011;68563;45.644;13.782;2023-05-07T11:32:26;7.15;;;5.60;;
79149;SDS011;68563;45.644;13.782;2023-05-07T11:34:57;9.98;;;6.18;;
79149;SDS011;68563;45.644;13.782;2023-05-07T11:37:23;10.77;;;5.53;;
79149;SDS011;68563;45.644;13.782;2023-05-07T11:39:50;8.25;;;5.25;;
79149;SDS011;68563;45.644;13.782;2023-05-07T11:45:22;6.85;;;5.28;;
79149;SDS011;68563;45.644;13.782;2023-05-07T11:47:50;11.75;;;5.80;;
79149;SDS011;68563;45.644;13.782;2023-05-07T11:50:15;7.38;;;5.47;;
79149;SDS011;68563;45.644;13.782;2023-05-07T11:52:49;7.65;;;5.18;;
79149;SDS011;68563;45.644;13.782;2023-05-07T11:55:17;7.53;;;4.93;;
79149;SDS011;68563;45.644;13.782;2023-05-07T11:57:43;6.55;;;5.63;;
79149;SDS011;68563;45.644;13.782;2023-05-07T12:00:09;6.28;;;5.47;;
79149;SDS011;68563;45.644;13.782;2023-05-07T12:02:35;7.20;;;5.28;;
79149;SDS011;68563;45.644;13.782;2023-05-07T12:05:00;6.60;;;5.35;;
79149;SDS011;68563;45.644;13.782;2023-05-07T12:07:27;7.03;;;5.30;;
79149;SDS011;68563;45.644;13.782;2023-05-07T12:09:53;6.53;;;5.28;;
79149;SDS011;68563;45.644;13.782;2023-05-07T12:12:18;8.40;;;6.20;;
79149;SDS011;68563;45.644;13.782;2023-05-07T12:14:44;7.05;;;4.95;;
79149;SDS011;68563;45.644;13.782;2023-05-07T12:17:11;4.90;;;4.07;;
79149;SDS011;68563;45.644;13.782;2023-05-07T12:19:38;5.43;;;4.35;;
79149;SDS011;68563;45.644;13.782;2023-05-07T12:22:05;6.80;;;4.60;;
79149;SDS011;68563;45.644;13.782;2023-05-07T12:27:11;7.35;;;5.03;;
79149;SDS011;68563;45.644;13.782;2023-05-07T12:29:36;4.72;;;4.30;;
79149;SDS011;68563;45.644;13.782;2023-05-07T12:32:05;5.22;;;4.63;;
79149;SDS011;68563;45.644;13.782;2023-05-07T12:34:31;7.05;;;4.60;;
79149;SDS011;68563;45.644;13.782;2023-05-07T12:36:57;6.68;;;4.72;;
79149;SDS011;68563;45.644;13.782;2023-05-07T12:39:22;6.20;;;5.18;;
79149;SDS011;68563;45.644;13.782;2023-05-07T12:41:54;9.32;;;4.82;;
79149;SDS011;68563;45.644;13.782;2023-05-07T12:44:23;5.32;;;4.60;;
79149;SDS011;68563;45.644;13.782;2023-05-07T12:46:49;6.80;;;4.20;;
79149;SDS011;68563;45.644;13.782;2023-05-07T12:49:15;5.45;;;4.72;;
79149;SDS011;68563;45.644;13.782;2023-05-07T12:51:41;5.35;;;4.63;;
79149;SDS011;68563;45.644;13.782;2023-05-07T12:54:06;5.20;;;4.35;;
79149;SDS011;68563;45.644;13.782;2023-05-07T12:56:35;9.25;;;4.60;;
79149;SDS011;68563;45.644;13.782;2023-05-07T13:01:28;5.50;;;4.27;;
79149;SDS011;68563;45.644;13.782;2023-05-07T13:03:55;6.00;;;4.80;;
79149;SDS011;68563;45.644;13.782;2023-05-07T13:06:21;6.68;;;4.40;;
79149;SDS011;68563;45.644;13.782;2023-05-07T13:08:46;5.82;;;4.10;;
79149;SDS011;68563;45.644;13.782;2023-05-07T13:11:12;5.93;;;4.40;;
79149;SDS011;68563;45.644;13.782;2023-05-07T13:13:39;4.95;;;4.45;;
79149;SDS011;68563;45.644;13.782;2023-05-07T13:16:06;6.35;;;4.20;;
79149;SDS011;68563;45.644;13.782;2023-05-07T13:18:33;6.72;;;4.53;;
79149;SDS011;68563;45.644;13.782;2023-05-07T13:20:59;5.57;;;4.25;;
79149;SDS011;68563;45.644;13.782;2023-05-07T13:23:26;5.50;;;3.95;;
79149;SDS011;68563;45.644;13.782;2023-05-07T13:25:52;5.88;;;4.50;;
79149;SDS011;68563;45.644;13.782;2023-05-07T13:28:18;6.28;;;5.10;;
79149;SDS011;68563;45.644;13.782;2023-05-07T13:30:45;7.63;;;5.20;;
79149;SDS011;68563;45.644;13.782;2023-05-07T13:33:11;7.63;;;5.03;;
79149;SDS011;68563;45.644;13.782;2023-05-07T13:35:36;6.32;;;5.00;;
79149;SDS011;68563;45.644;13.782;2023-05-07T13:38:02;7.22;;;4.90;;
79149;SDS011;68563;45.644;13.782;2023-05-07T13:40:28;7.50;;;5.35;;
79149;SDS011;68563;45.644;13.782;2023-05-07T13:42:53;9.25;;;6.57;;
79149;SDS011;68563;45.644;13.782;2023-05-07T13:45:19;7.57;;;6.20;;
79149;SDS011;68563;45.644;13.782;2023-05-07T13:47:45;7.85;;;6.32;;
79149;SDS011;68563;45.644;13.782;2023-05-07T13:50:11;7.55;;;6.00;;
79149;SDS011;68563;45.644;13.782;2023-05-07T13:52:38;8.02;;;6.15;;
79149;SDS011;68563;45.644;13.782;2023-05-07T13:55:06;8.40;;;6.53;;
79149;SDS011;68563;45.644;13.782;2023-05-07T13:57:32;7.30;;;5.80;;
79149;SDS011;68563;45.644;13.782;2023-05-07T13:59:57;7.93;;;6.95;;
79149;SDS011;68563;45.644;13.782;2023-05-07T14:02:23;7.68;;;6.32;;
79149;SDS011;68563;45.644;13.782;2023-05-07T14:04:48;9.35;;;7.03;;
79149;SDS011;68563;45.644;13.782;2023-05-07T14:07:13;8.48;;;5.85;;
79149;SDS011;68563;45.644;13.782;2023-05-07T14:09:39;7.97;;;5.85;;
79149;SDS011;68563;45.644;13.782;2023-05-07T14:12:05;6.85;;;5.22;;
79149;SDS011;68563;45.644;13.782;2023-05-07T14:14:30;7.18;;;5.95;;
79149;SDS011;68563;45.644;13.782;2023-05-07T14:16:56;5.97;;;5.18;;
79149;SDS011;68563;45.644;13.782;2023-05-07T14:19:22;6.53;;;5.18;;
79149;SDS011;68563;45.644;13.782;2023-05-07T14:21:50;6.90;;;5.32;;
79149;SDS011;68563;45.644;13.782;2023-05-07T14:24:16;8.80;;;5.20;;
79149;SDS011;68563;45.644;13.782;2023-05-07T14:26:41;6.68;;;4.90;;
79149;SDS011;68563;45.644;13.782;2023-05-07T14:29:06;5.78;;;5.10;;
79149;SDS011;68563;45.644;13.782;2023-05-07T14:31:32;8.45;;;4.80;;
79149;SDS011;68563;45.644;13.782;2023-05-07T14:33:58;8.35;;;5.53;;
79149;SDS011;68563;45.644;13.782;2023-05-07T14:36:24;5.65;;;4.95;;
79149;SDS011;68563;45.644;13.782;2023-05-07T14:38:51;7.70;;;5.53;;
79149;SDS011;68563;45.644;13.782;2023-05-07T14:41:18;7.15;;;5.40;;
79149;SDS011;68563;45.644;13.782;2023-05-07T14:43:44;6.43;;;5.18;;
79149;SDS011;68563;45.644;13.782;2023-05-07T14:46:15;5.63;;;3.92;;
79149;SDS011;68563;45.644;13.782;2023-05-07T14:48:41;5.50;;;4.72;;
79149;SDS011;68563;45.644;13.782;2023-05-07T14:51:08;5.32;;;4.72;;
79149;SDS011;68563;45.644;13.782;2023-05-07T14:53:33;7.07;;;4.82;;
79149;SDS011;68563;45.644;13.782;2023-05-07T14:55:58;5.40;;;4.70;;
79149;SDS011;68563;45.644;13.782;2023-05-07T14:58:25;6.40;;;4.03;;
79149;SDS011;68563;45.644;13.782;2023-05-07T15:00:50;7.35;;;4.70;;
79149;SDS011;68563;45.644;13.782;2023-05-07T15:03:15;6.00;;;5.13;;